Terminal Aerodrome Forecast
Issued by NWS Grand Forks, ND

Home | Current Version | Previous Version | Text Only | Print | Product List | Glossary Off
Versions: 1 2 3 4 5 6 7 8 9 10 11 12 13 14 15 16 17 18 19 20

151
FTUS43 KFGF 211722
TAFFAR
TAF
KFAR 211722Z 2118/2218 34014KT P6SM FEW150
      TEMPO 2118/2121 BKN028
     FM220200 03007KT P6SM FEW250
     FM220800 11006KT P6SM SCT250
     FM221400 15012G20KT P6SM BKN110=

USA.gov is the U.S. government's official web portal to all federal, state and local government web resources and services.